Time;durP1;ratioP1;P1;durP2;ratioP2;P2;SDS_P1;SDS_P2;PMS_P1;PMS_P2;Temp;Humidity;BMP_temperature;BMP_pressure;BME280_temperature;BME280_humidity;BME280_pressure;Samples;Min_cycle;Max_cycle;Signal;HPM_P1;HPM_P2
2023/08/20 00:00:14;;;;;;;12.37;9.40;;;;;;;27.49;58.84;97792.56;5118227;27;20211;-74
2023/08/20 00:02:42;;;;;;;18.00;14.13;;;;;;;27.44;58.93;97786.06;5116478;27;20208;-75
2023/08/20 00:05:08;;;;;;;18.50;13.37;;;;;;;27.46;59.05;97785.81;5126826;27;20465;-73
2023/08/20 00:07:34;;;;;;;12.80;11.50;;;;;;;27.46;59.04;97785.03;5123870;27;20437;-75
2023/08/20 00:10:00;;;;;;;16.17;10.97;;;;;;;27.43;58.90;97781.72;5146722;27;20457;-74
2023/08/20 00:12:26;;;;;;;12.30;9.53;;;;;;;27.42;59.22;97792.72;5136269;27;20229;-74
2023/08/20 00:14:56;;;;;;;13.17;10.50;;;;;;;27.39;59.30;97788.66;5110178;27;20177;-74
2023/08/20 00:17:24;;;;;;;17.07;15.10;;;;;;;27.36;59.52;97794.53;5128949;27;20421;-74
2023/08/20 00:19:50;;;;;;;20.17;14.03;;;;;;;27.32;59.51;97793.41;5103892;27;20426;-74
2023/08/20 00:22:16;;;;;;;14.20;12.50;;;;;;;27.31;59.71;97791.78;5099817;27;20454;-75
2023/08/20 00:24:42;;;;;;;17.17;12.13;;;;;;;27.34;59.84;97791.28;5092621;27;20194;-75
2023/08/20 00:27:08;;;;;;;14.17;9.63;;;;;;;27.34;59.70;97801.22;5111644;27;20910;-72
2023/08/20 00:29:33;;;;;;;14.30;12.80;;;;;;;27.29;59.73;97799.28;5091318;28;20463;-74
2023/08/20 00:31:59;;;;;;;22.30;16.50;;;;;;;27.25;59.64;97798.13;5109299;27;20606;-75
2023/08/20 00:34:24;;;;;;;17.33;14.70;;;;;;;27.24;59.68;97796.50;5138932;27;20264;-73
2023/08/20 00:36:50;;;;;;;20.10;15.30;;;;;;;27.18;60.12;97805.56;5114062;27;20322;-72
2023/08/20 00:39:15;;;;;;;20.73;16.40;;;;;;;27.17;59.91;97801.25;5130275;27;20248;-73
2023/08/20 00:41:41;;;;;;;22.07;15.90;;;;;;;27.12;60.23;97800.09;5143370;27;20319;-73
2023/08/20 00:44:06;;;;;;;17.53;12.00;;;;;;;27.13;60.63;97806.31;5127007;27;20184;-73
2023/08/20 00:46:31;;;;;;;17.53;12.17;;;;;;;27.13;60.36;97803.63;5120152;27;20708;-74
2023/08/20 00:48:57;;;;;;;14.90;11.13;;;;;;;27.09;60.44;97810.53;5102917;28;20209;-73
2023/08/20 00:51:23;;;;;;;17.10;14.13;;;;;;;27.08;60.29;97804.34;5129033;27;20208;-74
2023/08/20 00:53:48;;;;;;;21.00;14.70;;;;;;;27.10;60.21;97809.47;5113737;28;20200;-74
2023/08/20 00:56:15;;;;;;;12.60;10.60;;;;;;;27.05;60.23;97799.47;5117274;27;20860;-73
2023/08/20 00:58:40;;;;;;;16.30;9.67;;;;;;;27.04;60.98;97799.69;5100011;27;20267;-73
2023/08/20 01:01:06;;;;;;;13.00;10.43;;;;;;;27.06;60.78;97798.41;5110553;27;20545;-73
2023/08/20 01:03:31;;;;;;;19.43;13.77;;;;;;;27.05;60.52;97799.47;5125740;27;20269;-73
2023/08/20 01:06:23;;;;;;;21.07;13.83;;;;;;;27.02;60.64;97799.13;5125496;27;20271;-74
2023/08/20 01:08:56;;;;;;;14.10;11.80;;;;;;;27.00;60.57;97802.06;5134013;27;20654;-74
2023/08/20 01:11:26;;;;;;;16.43;13.43;;;;;;;27.01;60.36;97806.38;5138744;27;20457;-73
2023/08/20 01:13:54;;;;;;;14.20;12.63;;;;;;;26.95;60.51;97804.69;5116748;28;20902;-74
2023/08/20 01:16:20;;;;;;;15.53;10.70;;;;;;;26.94;60.82;97803.84;5133561;27;20949;-74
2023/08/20 01:18:45;;;;;;;15.00;9.80;;;;;;;26.92;61.03;97805.16;5131052;27;20481;-73
2023/08/20 01:21:38;;;;;;;10.97;9.87;;;;;;;26.92;61.00;97807.84;5129920;27;20291;-73
2023/08/20 01:24:31;;;;;;;13.53;10.07;;;;;;;26.94;61.15;97808.44;5121303;27;20192;-73
2023/08/20 01:27:35;;;;;;;15.97;9.80;;;;;;;26.91;61.31;97808.91;5125400;27;20950;-72
2023/08/20 01:30:01;;;;;;;18.37;12.30;;;;;;;26.87;61.03;97802.38;5116672;27;20561;-74
2023/08/20 01:32:26;;;;;;;15.17;11.87;;;;;;;26.86;60.94;97809.63;5105293;28;20439;-73
2023/08/20 01:34:53;;;;;;;15.53;12.93;;;;;;;26.81;60.74;97807.69;5107949;27;20616;-74
2023/08/20 01:37:19;;;;;;;15.43;13.00;;;;;;;26.73;61.12;97808.03;5125522;27;20592;-74
2023/08/20 01:39:44;;;;;;;14.27;12.13;;;;;;;26.77;61.14;97806.50;5131844;27;20413;-74
2023/08/20 01:42:10;;;;;;;17.83;10.60;;;;;;;26.75;61.61;97811.31;5125894;27;20257;-72
2023/08/20 01:44:35;;;;;;;16.13;10.50;;;;;;;26.74;61.48;97815.03;5119069;27;20267;-72
2023/08/20 01:47:01;;;;;;;15.07;12.83;;;;;;;26.70;61.14;97813.91;5145052;27;20186;-74
2023/08/20 01:49:26;;;;;;;11.83;10.63;;;;;;;26.69;61.44;97814.97;5121939;27;20237;-73
2023/08/20 01:51:51;;;;;;;13.63;10.07;;;;;;;26.66;61.57;97807.38;5122050;27;20253;-74
2023/08/20 01:54:17;;;;;;;11.50;10.30;;;;;;;26.62;61.87;97812.44;5140905;27;20231;-73
2023/08/20 01:56:42;;;;;;;15.90;12.00;;;;;;;26.61;61.81;97815.34;5126653;27;20185;-73
2023/08/20 01:59:08;;;;;;;12.87;11.23;;;;;;;26.53;61.82;97813.84;5111646;27;20705;-72
2023/08/20 02:01:34;;;;;;;13.60;11.00;;;;;;;26.51;62.17;97816.00;5125045;27;20208;-74
2023/08/20 02:03:59;;;;;;;11.20;10.00;;;;;;;26.51;62.20;97816.81;5134464;27;20661;-75
2023/08/20 02:06:25;;;;;;;13.63;10.73;;;;;;;26.57;62.17;97820.41;5111791;28;20196;-75
2023/08/20 02:08:50;;;;;;;16.63;10.50;;;;;;;26.55;62.23;97817.13;5113647;27;20204;-74
2023/08/20 02:11:16;;;;;;;12.23;10.03;;;;;;;26.55;62.00;97816.31;5148659;27;20211;-75
2023/08/20 02:13:41;;;;;;;15.73;10.73;;;;;;;26.54;62.17;97815.50;5143567;27;20224;-74
2023/08/20 02:16:06;;;;;;;10.53;9.50;;;;;;;26.55;62.10;97821.69;5123963;27;20203;-74
2023/08/20 02:18:32;;;;;;;12.37;11.07;;;;;;;26.49;61.88;97823.47;5128929;27;20663;-74
2023/08/20 02:20:57;;;;;;;14.20;10.57;;;;;;;26.45;61.86;97822.31;5108905;27;20287;-74
2023/08/20 02:23:23;;;;;;;15.40;11.40;;;;;;;26.41;61.99;97822.00;5138126;27;20227;-73
2023/08/20 02:25:49;;;;;;;14.37;10.90;;;;;;;26.40;61.77;97820.34;5118070;27;20180;-73
2023/08/20 02:28:14;;;;;;;14.63;9.80;;;;;;;26.36;62.41;97824.56;5123038;27;20192;-74
2023/08/20 02:30:44;;;;;;;11.90;10.80;;;;;;;26.35;62.35;97821.09;5112318;27;20661;-73
2023/08/20 02:33:09;;;;;;;13.90;10.13;;;;;;;26.37;62.25;97823.50;5121292;27;20185;-73
2023/08/20 02:35:36;;;;;;;12.03;9.37;;;;;;;26.34;62.56;97819.44;5118350;27;20903;-74
2023/08/20 02:38:01;;;;;;;14.50;10.17;;;;;;;26.34;62.63;97818.63;5130262;27;20187;-74
2023/08/20 02:40:27;;;;;;;14.77;12.00;;;;;;;26.31;62.21;97817.22;5096388;27;20794;-74
2023/08/20 02:42:52;;;;;;;11.90;10.80;;;;;;;26.30;62.11;97815.59;5137297;27;20288;-73
2023/08/20 02:45:18;;;;;;;13.80;10.50;;;;;;;26.28;62.06;97820.38;5123272;27;20283;-74
2023/08/20 02:47:43;;;;;;;12.70;11.27;;;;;;;26.27;62.45;97826.00;5123435;27;20260;-74
2023/08/20 02:50:09;;;;;;;11.03;9.90;;;;;;;26.29;62.28;97823.91;5129408;27;20353;-74
2023/08/20 02:52:34;;;;;;;12.43;10.23;;;;;;;26.29;62.29;97831.97;5134449;27;20212;-73
2023/08/20 02:55:00;;;;;;;11.17;9.77;;;;;;;26.28;61.90;97823.06;5133580;27;20196;-75
2023/08/20 02:57:25;;;;;;;18.17;10.70;;;;;;;26.26;61.75;97827.06;5130583;27;20195;-74
2023/08/20 02:59:51;;;;;;;13.37;11.03;;;;;;;26.14;62.23;97822.56;5107421;27;20271;-75
2023/08/20 03:02:17;;;;;;;11.93;10.63;;;;;;;26.12;61.95;97813.91;5115007;27;20201;-72
2023/08/20 03:04:42;;;;;;;11.13;10.13;;;;;;;26.09;62.59;97817.03;5120530;27;20267;-74
2023/08/20 03:07:08;;;;;;;11.43;9.50;;;;;;;26.08;62.75;97812.75;5120792;27;20533;-74
2023/08/20 03:09:33;;;;;;;13.23;9.53;;;;;;;26.09;62.79;97806.28;5124405;27;20665;-75
2023/08/20 03:11:59;;;;;;;10.13;9.13;;;;;;;26.10;62.92;97810.66;5141616;27;20200;-75
2023/08/20 03:14:24;;;;;;;11.80;9.30;;;;;;;26.12;62.91;97802.38;5125125;27;20241;-74
2023/08/20 03:16:50;;;;;;;10.50;8.70;;;;;;;26.09;62.88;97803.59;5128993;27;20228;-74
2023/08/20 03:19:16;;;;;;;12.17;9.90;;;;;;;26.03;62.93;97808.06;5145138;27;20208;-74
2023/08/20 03:21:41;;;;;;;14.63;9.50;;;;;;;26.01;63.26;97798.63;5126543;27;20215;-74
2023/08/20 03:24:07;;;;;;;12.63;9.40;;;;;;;26.02;63.00;97803.75;5148822;27;20949;-74
2023/08/20 03:26:33;;;;;;;10.87;9.77;;;;;;;26.03;62.91;97809.94;5135266;27;20199;-74
2023/08/20 03:28:59;;;;;;;10.83;9.33;;;;;;;26.06;62.95;97806.78;5119446;27;20569;-74
2023/08/20 03:31:24;;;;;;;13.77;9.70;;;;;;;26.05;62.59;97805.16;5115451;27;20272;-74
2023/08/20 03:33:50;;;;;;;10.93;9.77;;;;;;;26.02;62.39;97814.47;5130583;27;20192;-73
2023/08/20 03:36:15;;;;;;;14.30;10.20;;;;;;;25.97;62.32;97816.25;5131564;27;20211;-73
2023/08/20 03:38:41;;;;;;;13.33;10.63;;;;;;;25.89;62.35;97804.84;5108532;27;20248;-72
2023/08/20 03:41:06;;;;;;;12.57;10.17;;;;;;;25.83;62.46;97808.50;5145135;27;20727;-73
2023/08/20 03:43:32;;;;;;;11.73;10.43;;;;;;;25.82;62.29;97804.16;5140065;27;20243;-74
2023/08/20 03:45:57;;;;;;;12.40;9.60;;;;;;;25.84;62.60;97807.41;5135017;27;20188;-75
2023/08/20 03:48:23;;;;;;;13.37;9.13;;;;;;;25.86;62.89;97805.31;5130595;27;20674;-75
2023/08/20 03:50:48;;;;;;;10.57;9.47;;;;;;;25.87;62.61;97798.88;5131152;27;20212;-74
2023/08/20 03:53:13;;;;;;;13.03;9.00;;;;;;;25.88;62.86;97797.03;5132497;27;20202;-74
2023/08/20 03:55:39;;;;;;;15.50;9.13;;;;;;;25.84;63.21;97795.88;5136758;27;20215;-75
2023/08/20 03:58:04;;;;;;;10.13;8.67;;;;;;;25.83;63.11;97797.75;5121856;27;20193;-74
2023/08/20 04:00:30;;;;;;;11.30;9.40;;;;;;;25.83;62.81;97797.75;5128515;27;20267;-74
2023/08/20 04:02:55;;;;;;;9.20;8.40;;;;;;;25.82;63.06;97796.13;5130240;27;20331;-75
2023/08/20 04:05:21;;;;;;;11.20;8.37;;;;;;;25.83;62.51;97796.91;5138663;27;20267;-73
2023/08/20 04:07:46;;;;;;;10.60;9.50;;;;;;;25.80;62.57;97803.59;5134712;27;20207;-74
2023/08/20 04:10:11;;;;;;;13.33;9.30;;;;;;;25.78;62.62;97816.44;5125450;27;20222;-74
2023/08/20 04:12:37;;;;;;;12.03;8.90;;;;;;;25.77;62.82;97820.16;5126029;27;20291;-74
2023/08/20 04:15:03;;;;;;;13.40;9.53;;;;;;;25.66;62.65;97819.09;5119778;27;20727;-74
2023/08/20 04:17:28;;;;;;;11.40;9.67;;;;;;;25.61;62.20;97821.69;5129509;27;20279;-74
2023/08/20 04:19:54;;;;;;;11.33;9.87;;;;;;;25.52;62.84;97820.44;5136700;27;20188;-74
2023/08/20 04:22:19;;;;;;;11.70;10.50;;;;;;;25.53;62.98;97820.19;5147136;27;20260;-74
2023/08/20 04:24:44;;;;;;;12.80;9.10;;;;;;;25.54;62.88;97812.94;5129045;27;20271;-73
2023/08/20 04:27:10;;;;;;;10.43;9.53;;;;;;;25.49;62.79;97813.66;5128621;27;20499;-74
2023/08/20 04:29:35;;;;;;;12.73;9.60;;;;;;;25.51;62.92;97818.78;5111089;27;20257;-73
2023/08/20 04:32:01;;;;;;;11.83;9.10;;;;;;;25.53;63.29;97822.88;5123901;27;20236;-74
2023/08/20 04:34:26;;;;;;;10.23;8.53;;;;;;;25.52;63.04;97829.28;5117867;27;20185;-74
2023/08/20 04:36:52;;;;;;;12.23;9.43;;;;;;;25.53;63.32;97830.09;5129501;27;20188;-73
2023/08/20 04:39:18;;;;;;;10.43;9.43;;;;;;;25.55;63.15;97822.63;5130212;27;20290;-73
2023/08/20 04:41:43;;;;;;;12.93;9.50;;;;;;;25.55;63.38;97823.47;5131860;27;20208;-74
2023/08/20 04:44:09;;;;;;;19.53;9.13;;;;;;;25.55;62.98;97828.81;5143552;27;20435;-74
2023/08/20 04:46:34;;;;;;;9.57;8.63;;;;;;;25.57;63.43;97833.94;5139127;27;20188;-74
2023/08/20 04:49:00;;;;;;;10.17;8.70;;;;;;;25.56;62.86;97830.47;5129249;27;20572;-73
2023/08/20 04:51:25;;;;;;;11.70;9.30;;;;;;;25.55;63.44;97844.09;5137991;27;20269;-74
2023/08/20 04:53:51;;;;;;;9.40;8.40;;;;;;;25.53;63.70;97847.03;5108911;28;20208;-73
2023/08/20 04:56:16;;;;;;;11.40;8.70;;;;;;;25.56;63.36;97848.41;5128616;27;20220;-73
2023/08/20 04:58:42;;;;;;;12.70;8.53;;;;;;;25.55;63.34;97847.59;5117343;27;20196;-74
2023/08/20 05:01:08;;;;;;;13.43;9.10;;;;;;;25.58;63.52;97851.69;5129530;27;20258;-73
2023/08/20 05:03:34;;;;;;;9.90;8.90;;;;;;;25.58;63.24;97860.53;5109433;27;20185;-73
2023/08/20 05:06:00;;;;;;;9.20;8.30;;;;;;;25.60;63.74;97855.75;5121801;27;20449;-73
2023/08/20 05:08:25;;;;;;;15.40;8.90;;;;;;;25.63;63.70;97859.03;5128779;27;20500;-73
2023/08/20 05:10:51;;;;;;;19.10;9.37;;;;;;;25.65;64.05;97852.38;5135854;27;20211;-73
2023/08/20 05:13:17;;;;;;;10.37;9.30;;;;;;;25.66;63.55;97847.81;5119100;27;20187;-74
2023/08/20 05:15:42;;;;;;;11.53;9.50;;;;;;;25.53;63.30;97836.28;5151642;27;20188;-74
2023/08/20 05:18:08;;;;;;;11.40;9.40;;;;;;;25.50;63.61;97828.69;5118260;27;20461;-74
2023/08/20 05:20:33;;;;;;;11.97;9.77;;;;;;;25.53;63.38;97817.50;5130803;27;20187;-73
2023/08/20 05:22:59;;;;;;;11.00;9.30;;;;;;;25.58;63.54;97812.22;5124313;27;20750;-73
2023/08/20 05:25:24;;;;;;;11.20;10.10;;;;;;;25.64;63.56;97817.72;5131817;27;20184;-74
2023/08/20 05:27:50;;;;;;;14.80;9.53;;;;;;;25.69;63.55;97825.91;5134888;27;20573;-74
2023/08/20 05:30:15;;;;;;;10.57;8.77;;;;;;;25.77;63.71;97839.75;5137250;27;20215;-74
2023/08/20 05:32:41;;;;;;;18.03;9.90;;;;;;;25.81;63.61;97841.97;5144832;27;20207;-73
2023/08/20 05:35:06;;;;;;;13.87;8.90;;;;;;;25.84;63.72;97846.88;5129913;27;20665;-73
2023/08/20 05:37:32;;;;;;;10.03;9.13;;;;;;;25.88;63.89;97856.91;5128352;27;20195;-73
2023/08/20 05:39:57;;;;;;;10.00;9.07;;;;;;;25.94;63.91;97854.34;5122062;27;20910;-74
2023/08/20 05:42:22;;;;;;;11.63;10.03;;;;;;;25.99;63.74;97857.09;5130210;27;20723;-74
2023/08/20 05:44:48;;;;;;;11.37;9.10;;;;;;;26.06;63.68;97857.81;5131051;27;20679;-73
2023/08/20 05:47:13;;;;;;;15.30;9.37;;;;;;;26.06;63.67;97857.81;5138211;27;20264;-73
2023/08/20 05:49:39;;;;;;;11.80;9.07;;;;;;;26.09;63.86;97861.88;5126662;27;20291;-74
2023/08/20 05:52:04;;;;;;;10.70;8.57;;;;;;;26.19;63.89;97862.13;5128208;27;20228;-74
2023/08/20 05:54:30;;;;;;;13.87;9.07;;;;;;;26.29;63.88;97856.16;5138097;27;20256;-73
2023/08/20 05:56:57;;;;;;;12.37;8.90;;;;;;;26.39;64.01;97864.41;5114043;27;20654;-74
2023/08/20 05:59:22;;;;;;;10.30;9.20;;;;;;;26.50;63.65;97860.84;5139514;27;20187;-73
2023/08/20 06:01:48;;;;;;;11.90;9.00;;;;;;;26.55;63.38;97854.75;5147680;27;20999;-73
2023/08/20 06:04:13;;;;;;;10.73;8.77;;;;;;;26.69;63.40;97863.34;5140651;27;20819;-75
2023/08/20 06:06:40;;;;;;;17.03;8.90;;;;;;;26.86;62.99;97867.97;5141087;27;20207;-73
2023/08/20 06:09:05;;;;;;;11.03;9.17;;;;;;;27.04;62.88;97872.28;5128108;27;20235;-75
2023/08/20 06:11:31;;;;;;;15.40;9.80;;;;;;;27.23;62.47;97871.03;5140221;27;20868;-74
2023/08/20 06:13:56;;;;;;;12.07;9.33;;;;;;;27.40;62.07;97865.63;5128680;27;20289;-74
2023/08/20 06:16:22;;;;;;;15.27;9.03;;;;;;;27.57;61.51;97876.41;5141172;27;20196;-73
2023/08/20 06:18:47;;;;;;;9.90;8.57;;;;;;;27.79;61.30;97874.81;5151894;27;20227;-74
2023/08/20 06:21:13;;;;;;;9.77;8.63;;;;;;;28.00;61.29;97879.41;5139484;27;20210;-74
2023/08/20 06:23:38;;;;;;;10.17;9.07;;;;;;;28.20;61.00;97875.41;5146070;27;20187;-75
2023/08/20 06:26:04;;;;;;;12.33;8.70;;;;;;;28.34;60.45;97878.53;5135169;27;20714;-74
2023/08/20 06:28:30;;;;;;;9.93;8.67;;;;;;;28.47;60.11;97878.13;5134770;27;20656;-75
2023/08/20 06:30:56;;;;;;;13.87;9.10;;;;;;;28.56;59.72;97875.81;5151755;27;20215;-74
2023/08/20 06:33:21;;;;;;;11.30;9.20;;;;;;;28.64;59.09;97878.03;5139578;27;20833;-75
2023/08/20 06:35:46;;;;;;;9.20;8.40;;;;;;;28.71;59.24;97877.03;5141246;27;20552;-74
2023/08/20 06:38:12;;;;;;;13.67;10.00;;;;;;;28.82;58.95;97873.41;5130435;27;20181;-74
2023/08/20 06:40:37;;;;;;;17.50;9.90;;;;;;;28.98;58.88;97876.25;5110060;27;20276;-74
2023/08/20 06:43:03;;;;;;;10.87;9.20;;;;;;;29.09;58.68;97872.56;5140617;27;20202;-74
2023/08/20 06:45:30;;;;;;;14.47;9.23;;;;;;;29.23;57.79;97879.16;5152947;27;20188;-74
2023/08/20 06:47:57;;;;;;;15.90;9.93;;;;;;;29.38;57.68;97883.88;5129818;27;20286;-73
2023/08/20 06:50:22;;;;;;;12.00;8.20;;;;;;;29.54;57.17;97876.72;5138629;27;20457;-74
2023/08/20 06:52:48;;;;;;;9.83;8.60;;;;;;;29.73;57.12;97887.09;5141569;27;20443;-74
2023/08/20 06:55:13;;;;;;;9.77;8.10;;;;;;;29.83;56.07;97881.75;5139745;27;20279;-74
2023/08/20 06:57:39;;;;;;;8.67;7.87;;;;;;;29.94;55.70;97887.22;5130040;27;20607;-74
2023/08/20 07:00:05;;;;;;;9.70;8.00;;;;;;;30.01;55.58;97882.41;5131743;27;20260;-74
2023/08/20 07:02:31;;;;;;;12.13;7.87;;;;;;;30.07;55.30;97886.75;5131419;27;20591;-74
2023/08/20 07:04:56;;;;;;;8.97;8.17;;;;;;;30.20;55.63;97885.44;5148352;27;20552;-74
2023/08/20 07:07:22;;;;;;;9.43;8.13;;;;;;;30.26;55.07;97878.19;5143031;27;20263;-74
2023/08/20 07:09:47;;;;;;;9.77;8.77;;;;;;;30.40;55.13;97890.13;5109321;27;20216;-74
2023/08/20 07:12:13;;;;;;;10.23;8.57;;;;;;;30.56;54.50;97890.22;5120421;27;20215;-74
2023/08/20 07:14:38;;;;;;;14.10;8.10;;;;;;;30.70;54.53;97888.63;5130658;27;20202;-74
2023/08/20 07:17:05;;;;;;;10.50;8.07;;;;;;;30.83;53.85;97889.19;5130342;27;20542;-75
2023/08/20 07:19:30;;;;;;;12.60;8.00;;;;;;;30.99;53.62;97895.44;5113891;27;20212;-74
2023/08/20 07:21:55;;;;;;;9.73;7.80;;;;;;;31.10;52.24;97892.47;5141739;27;20586;-74
2023/08/20 07:24:25;;;;;;;9.30;7.67;;;;;;;31.26;52.17;97895.19;5151678;27;20296;-74
2023/08/20 07:26:51;;;;;;;9.23;8.33;;;;;;;31.37;51.74;97891.41;5133595;27;20824;-74
2023/08/20 07:29:16;;;;;;;10.73;7.90;;;;;;;31.53;51.49;97899.50;5121057;27;20555;-75
2023/08/20 07:31:42;;;;;;;11.40;7.70;;;;;;;31.74;51.17;97904.94;5128673;27;20560;-74
2023/08/20 07:34:07;;;;;;;11.03;7.87;;;;;;;31.92;50.66;97912.47;5130224;27;20259;-73
2023/08/20 07:36:33;;;;;;;8.40;7.50;;;;;;;31.96;49.95;97913.56;5129980;27;20231;-75
2023/08/20 07:38:59;;;;;;;9.33;7.50;;;;;;;31.95;50.04;97916.53;5124811;27;20196;-74
2023/08/20 07:41:25;;;;;;;11.60;8.03;;;;;;;31.99;50.02;97923.03;5116643;27;20224;-74
2023/08/20 07:43:50;;;;;;;8.43;7.13;;;;;;;32.11;50.13;97914.59;5130101;27;20820;-73
2023/08/20 07:46:15;;;;;;;10.77;7.90;;;;;;;32.18;50.10;97920.53;5130586;27;20188;-75
2023/08/20 07:48:41;;;;;;;13.27;8.10;;;;;;;32.31;49.45;97919.97;5129292;27;20188;-73
2023/08/20 07:51:07;;;;;;;8.30;7.50;;;;;;;32.31;49.23;97924.59;5138667;27;20236;-74
2023/08/20 07:53:33;;;;;;;11.90;8.03;;;;;;;32.20;49.46;97920.28;5127609;27;20234;-74
2023/08/20 07:55:59;;;;;;;9.27;7.90;;;;;;;32.20;49.17;97929.19;5139334;27;20712;-74
2023/08/20 07:58:25;;;;;;;11.13;8.07;;;;;;;32.41;49.43;97915.59;5141129;27;21009;-74
2023/08/20 08:00:50;;;;;;;13.90;7.30;;;;;;;32.46;48.89;97923.72;5139848;27;20430;-74
2023/08/20 08:03:16;;;;;;;11.43;7.07;;;;;;;32.60;48.15;97927.44;5106155;27;20191;-74
2023/08/20 08:05:47;;;;;;;10.00;7.40;;;;;;;32.75;47.95;97928.44;5073264;27;20237;-74
2023/08/20 08:08:12;;;;;;;9.37;8.37;;;;;;;32.83;47.56;97927.88;5090192;27;20504;-74
2023/08/20 08:10:38;;;;;;;14.73;8.30;;;;;;;32.95;47.03;97926.72;5090193;27;20461;-74
2023/08/20 08:13:03;;;;;;;12.30;7.27;;;;;;;33.04;47.27;97922.31;5085036;27;20291;-74
2023/08/20 08:15:28;;;;;;;8.60;7.80;;;;;;;33.25;46.66;97925.69;5119640;27;20188;-75
2023/08/20 08:17:54;;;;;;;12.77;7.73;;;;;;;33.45;46.04;97924.75;5134823;27;20275;-75
2023/08/20 08:20:19;;;;;;;12.40;7.93;;;;;;;33.41;46.40;97934.53;5130324;27;20249;-74
2023/08/20 08:22:45;;;;;;;8.80;7.73;;;;;;;33.34;45.88;97926.72;5137891;27;20257;-74
2023/08/20 08:25:10;;;;;;;16.97;7.90;;;;;;;33.43;45.67;97931.56;5130122;27;20203;-76
2023/08/20 08:27:36;;;;;;;8.30;7.50;;;;;;;33.52;45.58;97936.06;5128282;27;20189;-75
2023/08/20 08:30:01;;;;;;;10.10;8.13;;;;;;;33.69;45.87;97938.38;5136633;27;20276;-75
2023/08/20 08:32:27;;;;;;;8.40;7.60;;;;;;;33.83;45.00;97930.34;5135164;27;20639;-74
2023/08/20 08:34:52;;;;;;;12.40;8.20;;;;;;;33.91;44.72;97939.00;5131846;27;20187;-75
2023/08/20 08:37:18;;;;;;;15.17;8.10;;;;;;;33.99;44.56;97938.38;5134215;27;20233;-75
2023/08/20 08:39:43;;;;;;;19.00;8.07;;;;;;;34.09;44.29;97930.13;5117032;27;20282;-74
2023/08/20 08:42:10;;;;;;;8.60;7.70;;;;;;;34.18;44.33;97941.16;5133258;27;20269;-75
2023/08/20 08:44:37;;;;;;;12.67;7.97;;;;;;;34.29;44.15;97931.78;5123558;27;20211;-75
2023/08/20 08:47:03;;;;;;;15.80;7.63;;;;;;;34.39;44.04;97930.88;5114517;27;20418;-74
2023/08/20 08:49:31;;;;;;;7.53;6.80;;;;;;;34.55;43.52;97934.22;5110758;27;20457;-75
2023/08/20 08:51:57;;;;;;;9.67;7.73;;;;;;;34.69;42.82;97939.72;5120739;27;20455;-74
2023/08/20 08:54:23;;;;;;;10.00;7.07;;;;;;;34.76;42.44;97937.47;5117863;27;20430;-74
2023/08/20 08:56:48;;;;;;;8.70;7.30;;;;;;;34.93;42.21;97941.59;5110616;27;20203;-74
2023/08/20 08:59:14;;;;;;;10.60;7.20;;;;;;;35.00;42.13;97938.50;5129361;27;20206;-75
2023/08/20 09:01:40;;;;;;;11.53;7.07;;;;;;;35.09;41.63;97941.38;5140925;27;20195;-74
2023/08/20 09:04:06;;;;;;;8.83;6.60;;;;;;;35.15;40.88;97938.28;5106144;27;20184;-74
2023/08/20 09:06:51;;;;;;;9.20;6.83;;;;;;;35.32;40.39;97940.47;5140158;27;20436;-74
2023/08/20 09:09:18;;;;;;;7.83;7.03;;;;;;;35.44;40.07;97939.22;5084190;27;20203;-75
2023/08/20 09:11:44;;;;;;;8.27;6.87;;;;;;;35.59;40.27;97935.44;5141065;27;20456;-74
2023/08/20 09:14:28;;;;;;;7.37;6.50;;;;;;;35.60;40.25;97943.31;5138073;27;20846;-74
2023/08/20 09:17:03;;;;;;;17.43;7.10;;;;;;;35.82;40.31;97947.28;5111195;27;20183;-74
2023/08/20 09:19:30;;;;;;;7.63;6.40;;;;;;;35.94;39.49;97939.44;5141155;27;20468;-75
2023/08/20 09:21:58;;;;;;;10.33;6.90;;;;;;;36.06;39.04;97947.13;5112057;27;20472;-74
2023/08/20 09:24:38;;;;;;;9.07;6.90;;;;;;;36.00;39.26;97942.09;5133546;27;20520;-74
2023/08/20 09:27:05;;;;;;;9.90;6.33;;;;;;;36.13;38.95;97947.53;5138735;27;20432;-74
2023/08/20 09:29:51;;;;;;;7.30;6.40;;;;;;;36.30;38.58;97946.13;5113956;28;20457;-75
2023/08/20 09:32:23;;;;;;;8.37;6.43;;;;;;;36.49;37.98;97943.31;5133012;27;20440;-75
2023/08/20 09:34:51;;;;;;;7.80;7.00;;;;;;;36.63;37.63;97942.47;5123418;28;20426;-75
2023/08/20 09:37:18;;;;;;;7.20;6.30;;;;;;;36.62;37.48;97940.88;5127939;27;20426;-75
2023/08/20 09:39:45;;;;;;;8.73;6.53;;;;;;;36.82;37.42;97939.59;5137077;27;21027;-75
2023/08/20 09:42:20;;;;;;;8.60;7.10;;;;;;;36.80;37.17;97937.16;5119515;27;20535;-74
2023/08/20 09:44:46;;;;;;;12.50;7.13;;;;;;;36.97;37.37;97944.75;5128864;27;20180;-75
2023/08/20 09:47:16;;;;;;;8.20;6.63;;;;;;;37.09;37.03;97940.66;5128075;27;20477;-74
2023/08/20 09:49:46;;;;;;;18.87;7.97;;;;;;;37.18;36.49;97955.97;5110276;28;20461;-74
2023/08/20 09:52:27;;;;;;;11.87;6.77;;;;;;;37.32;35.57;97957.84;5128659;27;20489;-75
2023/08/20 09:55:13;;;;;;;16.90;7.27;;;;;;;37.41;35.83;97947.84;5128398;27;20417;-74
2023/08/20 09:57:39;;;;;;;9.03;6.60;;;;;;;37.59;35.26;97948.75;5126818;27;21021;-75
2023/08/20 10:00:09;;;;;;;11.80;6.60;;;;;;;37.69;35.38;97944.91;5114704;27;20471;-75
2023/08/20 10:02:35;;;;;;;8.33;6.57;;;;;;;37.77;35.27;97940.63;5135398;27;20989;-74
2023/08/20 10:05:02;;;;;;;7.80;6.50;;;;;;;37.79;34.94;97939.19;5127532;27;20466;-74
2023/08/20 10:07:31;;;;;;;8.83;6.50;;;;;;;37.79;34.41;97944.69;5133598;27;20176;-75
2023/08/20 10:10:00;;;;;;;10.50;6.60;;;;;;;37.76;34.25;97933.53;5132163;27;20449;-75
2023/08/20 10:12:28;;;;;;;9.97;6.10;;;;;;;37.78;34.81;97925.84;5130017;27;20456;-75
2023/08/20 10:14:54;;;;;;;9.90;6.70;;;;;;;37.87;34.60;97928.59;5102743;27;20429;-75
2023/08/20 10:17:19;;;;;;;10.67;6.57;;;;;;;37.84;33.92;97932.78;5113742;27;20421;-73
2023/08/20 10:19:46;;;;;;;7.90;6.50;;;;;;;37.95;34.13;97930.59;5139144;27;20476;-74
2023/08/20 10:22:12;;;;;;;9.70;6.40;;;;;;;37.93;33.85;97932.88;5123429;27;20294;-74
2023/08/20 10:24:47;;;;;;;7.50;6.27;;;;;;;37.85;34.45;97931.66;5131742;27;20895;-75
2023/08/20 10:27:13;;;;;;;12.53;6.40;;;;;;;38.01;34.24;97932.09;5129345;27;20210;-75
2023/08/20 10:29:42;;;;;;;10.50;5.97;;;;;;;38.04;33.59;97927.91;5110566;27;20491;-75
2023/08/20 10:32:13;;;;;;;11.90;6.33;;;;;;;38.25;33.64;97925.38;5132624;27;20668;-75
2023/08/20 10:34:44;;;;;;;7.07;5.80;;;;;;;38.35;32.95;97925.13;5146494;27;20429;-74
2023/08/20 10:37:13;;;;;;;19.53;6.57;;;;;;;38.52;33.17;97931.75;5121546;27;20433;-74
2023/08/20 10:39:39;;;;;;;7.30;6.10;;;;;;;38.66;32.71;97928.88;5130305;27;20827;-76
2023/08/20 10:42:19;;;;;;;7.50;6.27;;;;;;;38.78;31.60;97922.78;5138004;27;20505;-75
2023/08/20 10:45:08;;;;;;;10.00;5.90;;;;;;;38.67;32.46;97925.00;5131505;27;20208;-75
2023/08/20 10:47:48;;;;;;;6.60;5.90;;;;;;;38.71;32.26;97924.03;5124224;27;20447;-74
2023/08/20 10:50:19;;;;;;;7.82;5.70;;;;;;;38.78;32.31;97922.78;5132441;27;20516;-75
2023/08/20 10:52:49;;;;;;;12.03;5.87;;;;;;;38.84;32.38;97925.06;5131698;27;20573;-75
2023/08/20 10:55:15;;;;;;;10.10;6.47;;;;;;;38.83;32.00;97925.38;5133608;27;20184;-75
2023/08/20 10:57:41;;;;;;;7.07;5.60;;;;;;;38.90;31.64;97935.84;5120729;27;20680;-74
2023/08/20 11:00:13;;;;;;;12.77;6.00;;;;;;;38.88;31.81;97922.47;5133130;27;20207;-74
2023/08/20 11:02:40;;;;;;;7.53;6.47;;;;;;;38.78;31.48;97926.31;5120209;27;20251;-75
2023/08/20 11:05:16;;;;;;;13.23;5.77;;;;;;;38.97;31.86;97920.53;5104429;27;20188;-74
2023/08/20 11:07:42;;;;;;;9.80;6.20;;;;;;;38.96;31.50;97932.63;5142098;27;20477;-75
2023/08/20 11:10:08;;;;;;;14.83;6.07;;;;;;;39.06;31.85;97922.47;5111935;27;20473;-73
2023/08/20 11:12:33;;;;;;;8.50;5.80;;;;;;;39.17;31.64;97915.53;5136063;27;20207;-74
2023/08/20 11:15:02;;;;;;;9.17;5.50;;;;;;;39.17;31.28;97910.06;5138277;27;20313;-74
2023/08/20 11:17:28;;;;;;;8.02;5.72;;;;;;;39.22;31.33;97912.63;5104732;27;20207;-73
2023/08/20 11:19:54;;;;;;;8.70;6.07;;;;;;;39.07;31.15;97904.91;5113252;27;20554;-74
2023/08/20 11:22:20;;;;;;;10.43;6.10;;;;;;;39.21;31.47;97902.78;5131849;27;20204;-75